Time;durP1;ratioP1;P1;durP2;ratioP2;P2;SDS_P1;SDS_P2;PMS_P1;PMS_P2;Temp;Humidity;BMP_temperature;BMP_pressure;BME280_temperature;BME280_humidity;BME280_pressure;Samples;Min_cycle;Max_cycle;Signal;HPM_P1;HPM_P2
2023/05/09 00:07:22;;;;;;;29.47;21.13;;;3.60;99.90;;;;;;4680497;30;20397;-85
2023/05/09 00:47:57;;;;;;;29.07;20.57;;;3.10;99.90;;;;;;4541585;31;20427;-85
2023/05/09 01:43:38;;;;;;;32.40;23.10;;;2.50;99.90;;;;;;4758752;29;20286;-84
2023/05/09 02:04:07;;;;;;;30.37;21.93;;;2.50;99.90;;;;;;4733753;29;20661;-87
2023/05/09 02:29:06;;;;;;;32.00;22.03;;;2.20;99.90;;;;;;4655811;30;20263;-85
2023/05/09 03:04:26;;;;;;;33.10;21.20;;;2.30;99.90;;;;;;4860095;29;20584;-86
2023/05/09 03:29:40;;;;;;;30.73;22.60;;;2.50;99.90;;;;;;4724588;29;20229;-87
2023/05/09 04:25:42;;;;;;;21.30;15.87;;;5.00;99.90;;;;;;4649106;30;20228;-84
2023/05/09 05:45:04;;;;;;;14.90;12.70;;;10.00;81.40;;;;;;4379024;31;20228;-83
2023/05/09 06:30:38;;;;;;;8.83;6.93;;;12.70;68.40;;;;;;4501036;30;20570;-84
2023/05/09 07:00:47;;;;;;;5.23;4.60;;;14.60;48.20;;;;;;4608056;29;20652;-83
2023/05/09 07:21:26;;;;;;;3.50;3.20;;;15.40;43.20;;;;;;4588643;30;21043;-81
2023/05/09 07:41:56;;;;;;;4.07;2.60;;;15.80;38.30;;;;;;4687823;29;20714;-82
2023/05/09 07:51:55;;;;;;;3.10;2.80;;;15.90;37.10;;;;;;5980047;23;20285;-84
2023/05/09 08:22:09;;;;;;;3.53;2.47;;;15.90;35.10;;;;;;4623077;30;20365;-81
2023/05/09 09:07:45;;;;;;;4.97;2.80;;;16.40;36.00;;;;;;4541062;30;20242;-83
2023/05/09 09:32:47;;;;;;;2.83;2.30;;;16.20;34.40;;;;;;4552743;30;20613;-85
2023/05/09 09:58:20;;;;;;;3.17;2.80;;;15.70;34.70;;;;;;4596722;30;20274;-88
2023/05/09 10:28:48;;;;;;;3.13;2.83;;;15.80;35.10;;;;;;4691892;29;20522;-83
2023/05/09 10:58:58;;;;;;;2.90;2.47;;;15.80;35.20;;;;;;4570720;30;21188;-84
2023/05/09 12:05:17;;;;;;;2.97;2.20;;;16.20;36.60;;;;;;4637818;30;20271;-84
2023/05/09 12:25:53;;;;;;;4.60;2.30;;;16.40;35.50;;;;;;4699456;29;20246;-85
2023/05/09 12:55:35;;;;;;;2.30;2.20;;;17.30;35.10;;;;;;4503571;31;20237;-87
2023/05/09 13:36:46;;;;;;;2.80;2.30;;;18.40;35.00;;;;;;4577807;30;20302;-81
2023/05/09 14:01:41;;;;;;;4.50;2.60;;;19.60;34.10;;;;;;4695235;29;20217;-85
2023/05/09 14:27:05;;;;;;;3.38;2.78;;;22.10;33.30;;;;;;4580328;30;20519;-84
2023/05/09 14:42:43;;;;;;;2.92;2.28;;;23.50;33.50;;;;;;4514369;31;20218;-84
2023/05/09 15:08:03;;;;;;;2.83;2.58;;;23.00;32.00;;;;;;4609540;30;20218;-81
2023/05/09 15:37:49;;;;;;;3.33;2.60;;;22.30;33.30;;;;;;4555488;30;20664;-84
2023/05/09 16:48:48;;;;;;;3.87;2.60;;;15.80;34.50;;;;;;4742910;29;20507;-83
2023/05/09 17:14:46;;;;;;;7.93;2.80;;;15.20;35.30;;;;;;4658562;30;20359;-83
2023/05/09 17:44:38;;;;;;;4.10;2.80;;;14.70;36.70;;;;;;4709147;29;20542;-85
2023/05/09 18:05:30;;;;;;;4.00;3.40;;;14.00;38.00;;;;;;4589862;30;20248;-85
2023/05/09 18:35:55;;;;;;;8.13;5.80;;;11.40;43.20;;;;;;4549002;30;20311;-83
2023/05/09 19:00:54;;;;;;;7.77;5.47;;;10.70;62.20;;;;;;4565246;30;20699;-86
2023/05/09 19:16:33;;;;;;;8.87;6.53;;;10.20;68.90;;;;;;4616746;30;20221;-85
2023/05/09 20:12:13;;;;;;;10.43;7.60;;;8.60;83.90;;;;;;4793124;29;20218;-83
2023/05/09 20:52:48;;;;;;;15.47;10.13;;;7.20;90.50;;;;;;4985546;27;20194;-83
2023/05/09 21:18:06;;;;;;;14.37;10.47;;;6.60;93.10;;;;;;4812818;28;20218;-83
2023/05/09 21:42:58;;;;;;;16.30;11.13;;;6.30;95.00;;;;;;4616474;29;20296;-85
2023/05/09 22:23:55;;;;;;;19.77;10.83;;;5.70;96.90;;;;;;4716905;29;20239;-82
2023/05/09 22:49:26;;;;;;;16.97;9.93;;;5.60;97.00;;;;;;4776236;29;20235;-82
2023/05/09 23:14:39;;;;;;;13.13;9.50;;;5.30;96.80;;;;;;4693841;29;20290;-82
2023/05/09 23:34:58;;;;;;;15.03;10.10;;;5.20;96.70;;;;;;4758603;29;20337;-80
